Time;durP1;ratioP1;P1;durP2;ratioP2;P2;SDS_P1;SDS_P2;PMS_P1;PMS_P2;Temp;Humidity;BMP_temperature;BMP_pressure;BME280_temperature;BME280_humidity;BME280_pressure;Samples;Min_cycle;Max_cycle;Signal;HPM_P1;HPM_P2
2023/04/05 00:01:30;;;;;;;7.60;5.72;;;2.60;79.80;;;;;;5100979;28;20050;-77
2023/04/05 00:03:58;;;;;;;9.18;5.28;;;2.60;79.70;;;;;;5100839;28;20495;-78
2023/04/05 00:06:25;;;;;;;9.75;5.43;;;2.50;79.80;;;;;;5117931;28;20054;-77
2023/04/05 00:08:55;;;;;;;11.07;5.57;;;2.60;79.90;;;;;;5117500;28;20035;-77
2023/04/05 00:11:24;;;;;;;9.23;5.72;;;2.60;79.90;;;;;;5114294;28;20464;-77
2023/04/05 00:13:50;;;;;;;8.73;5.15;;;2.50;79.80;;;;;;5097391;28;20144;-78
2023/04/05 00:16:17;;;;;;;9.48;5.53;;;2.50;79.90;;;;;;5114714;28;20452;-77
2023/04/05 00:18:50;;;;;;;8.90;5.55;;;2.50;79.80;;;;;;5114536;28;20039;-78
2023/04/05 00:21:17;;;;;;;9.82;6.35;;;2.40;79.90;;;;;;5114873;28;20102;-76
2023/04/05 00:23:43;;;;;;;9.52;5.43;;;2.40;80.00;;;;;;5114455;28;20051;-78
2023/04/05 00:26:10;;;;;;;8.90;6.00;;;2.40;80.10;;;;;;5097594;28;20495;-78
2023/04/05 00:28:36;;;;;;;8.85;5.10;;;2.30;80.20;;;;;;5113254;28;20506;-77
2023/04/05 00:31:04;;;;;;;7.65;5.38;;;2.30;80.40;;;;;;5114780;28;20031;-78
2023/04/05 00:33:29;;;;;;;8.52;4.95;;;2.30;80.40;;;;;;5114411;28;20491;-77
2023/04/05 00:35:55;;;;;;;7.63;5.03;;;2.30;80.20;;;;;;5097546;28;20042;-76
2023/04/05 00:38:21;;;;;;;11.75;5.40;;;2.30;80.20;;;;;;5114109;28;20552;-76
2023/04/05 00:40:46;;;;;;;10.88;5.50;;;2.20;80.20;;;;;;5097239;28;20036;-77
2023/04/05 00:43:12;;;;;;;12.05;5.97;;;2.10;80.50;;;;;;5097062;28;20047;-77
2023/04/05 00:45:38;;;;;;;10.35;5.53;;;2.10;80.60;;;;;;5113167;28;20062;-76
2023/04/05 00:48:04;;;;;;;9.68;5.30;;;2.10;80.60;;;;;;5097237;28;20134;-77
2023/04/05 00:50:31;;;;;;;8.23;5.78;;;2.10;80.70;;;;;;5080756;28;20417;-77
2023/04/05 00:52:57;;;;;;;11.15;5.60;;;2.10;80.60;;;;;;5114097;28;20039;-76
2023/04/05 00:55:25;;;;;;;11.52;5.57;;;2.10;80.70;;;;;;5096829;28;20079;-77
2023/04/05 00:57:54;;;;;;;12.82;5.75;;;2.10;80.60;;;;;;5114031;28;20470;-77
2023/04/05 01:00:21;;;;;;;8.73;5.50;;;2.10;80.70;;;;;;5096604;28;20055;-76
2023/04/05 01:03:00;;;;;;;10.27;6.03;;;2.10;80.80;;;;;;5113644;28;20079;-76
2023/04/05 01:06:08;;;;;;;9.38;5.32;;;2.00;80.60;;;;;;5093643;28;20048;-77
2023/04/05 01:08:45;;;;;;;8.18;5.47;;;2.00;80.70;;;;;;5076353;28;20058;-77
2023/04/05 01:11:12;;;;;;;8.85;5.93;;;2.00;80.90;;;;;;5093497;28;20044;-77
2023/04/05 01:13:38;;;;;;;9.10;6.15;;;1.90;80.90;;;;;;5059853;28;20417;-77
2023/04/05 01:16:04;;;;;;;12.30;6.63;;;1.90;81.10;;;;;;5076278;28;20047;-77
2023/04/05 01:18:30;;;;;;;12.55;6.13;;;1.80;81.10;;;;;;5094252;28;20043;-77
2023/04/05 01:21:32;;;;;;;11.23;5.63;;;1.80;81.30;;;;;;5096351;28;20042;-77
2023/04/05 01:24:21;;;;;;;10.25;6.53;;;1.80;81.20;;;;;;5102275;28;20078;-76
2023/04/05 01:27:09;;;;;;;12.55;6.60;;;1.80;81.40;;;;;;5119453;28;20051;-77
2023/04/05 01:30:29;;;;;;;9.88;5.88;;;1.80;81.30;;;;;;5104514;28;20109;-77
2023/04/05 01:33:13;;;;;;;9.77;5.55;;;1.80;81.30;;;;;;5023951;28;20080;-76
2023/04/05 01:35:54;;;;;;;11.82;5.82;;;1.80;81.40;;;;;;5085503;28;20482;-76
2023/04/05 01:38:24;;;;;;;15.38;5.85;;;1.80;81.40;;;;;;5092960;28;20238;-77
2023/04/05 01:40:51;;;;;;;9.35;6.25;;;1.70;81.50;;;;;;5092650;28;20522;-77
2023/04/05 01:43:17;;;;;;;9.73;5.85;;;1.70;81.70;;;;;;5075896;28;20101;-77
2023/04/05 01:45:44;;;;;;;8.52;5.53;;;1.70;81.70;;;;;;5109564;28;20487;-78
2023/04/05 01:48:11;;;;;;;8.80;6.00;;;1.70;81.80;;;;;;5092536;28;20052;-78
2023/04/05 01:50:37;;;;;;;10.05;5.43;;;1.70;81.70;;;;;;5089190;28;20043;-78
2023/04/05 01:53:03;;;;;;;9.00;5.95;;;1.60;81.80;;;;;;5112997;28;20039;-79
2023/04/05 01:55:29;;;;;;;10.07;5.90;;;1.60;82.00;;;;;;5095769;28;20040;-77
2023/04/05 01:57:57;;;;;;;9.05;6.20;;;1.60;82.10;;;;;;5112654;28;20118;-77
2023/04/05 02:00:22;;;;;;;9.20;5.90;;;1.60;82.20;;;;;;5112446;28;20063;-77
2023/04/05 02:02:48;;;;;;;11.65;5.60;;;1.60;82.30;;;;;;5078801;28;20036;-77
2023/04/05 02:05:14;;;;;;;10.40;5.53;;;1.60;82.40;;;;;;5095488;28;20043;-78
2023/04/05 02:07:40;;;;;;;13.25;6.78;;;1.60;82.50;;;;;;5111888;28;20434;-78
2023/04/05 02:10:07;;;;;;;9.60;5.82;;;1.60;82.40;;;;;;5095859;28;20051;-77
2023/04/05 02:12:32;;;;;;;10.45;6.10;;;1.60;82.40;;;;;;5095876;28;20463;-78
2023/04/05 02:14:58;;;;;;;11.95;6.60;;;1.50;82.50;;;;;;5112336;28;20131;-78
2023/04/05 02:17:24;;;;;;;12.93;6.55;;;1.50;82.70;;;;;;5095325;28;20487;-78
2023/04/05 02:19:51;;;;;;;10.43;5.95;;;1.50;82.50;;;;;;5112405;28;20054;-78
2023/04/05 02:22:18;;;;;;;8.75;6.03;;;1.50;82.70;;;;;;5111099;28;20040;-79
2023/04/05 02:24:44;;;;;;;10.80;6.22;;;1.50;82.70;;;;;;5112175;28;20081;-78
2023/04/05 02:27:10;;;;;;;11.02;6.10;;;1.40;82.80;;;;;;5112105;28;20079;-78
2023/04/05 02:29:36;;;;;;;8.98;6.18;;;1.40;82.80;;;;;;5095188;28;20050;-78
2023/04/05 02:32:01;;;;;;;10.48;5.95;;;1.40;82.80;;;;;;5095192;28;20105;-78
2023/04/05 02:34:27;;;;;;;12.73;6.88;;;1.30;82.90;;;;;;5111621;28;20093;-78
2023/04/05 02:36:53;;;;;;;11.27;6.90;;;1.30;82.90;;;;;;5094999;28;20046;-78
2023/04/05 02:39:19;;;;;;;9.48;6.38;;;1.20;83.10;;;;;;5094313;28;20058;-78
2023/04/05 02:41:45;;;;;;;11.07;6.03;;;1.20;83.20;;;;;;5112000;28;20043;-77
2023/04/05 02:44:12;;;;;;;11.38;6.63;;;1.20;83.10;;;;;;5111942;28;20130;-76
2023/04/05 02:46:38;;;;;;;11.02;6.03;;;1.20;83.10;;;;;;5078463;28;20051;-78
2023/04/05 02:49:04;;;;;;;8.13;6.05;;;1.20;83.20;;;;;;5112080;28;20394;-77
2023/04/05 02:51:29;;;;;;;11.32;6.50;;;1.20;83.20;;;;;;5111713;28;20039;-78
2023/04/05 02:53:55;;;;;;;10.05;5.75;;;1.10;83.20;;;;;;5094663;28;20044;-77
2023/04/05 02:56:21;;;;;;;10.27;6.10;;;1.10;83.30;;;;;;5110863;28;20032;-78
2023/04/05 02:58:48;;;;;;;11.25;6.10;;;1.10;83.30;;;;;;5111823;28;20039;-77
2023/04/05 03:01:16;;;;;;;8.98;6.30;;;1.10;83.30;;;;;;5115114;28;20054;-78
2023/04/05 03:03:42;;;;;;;9.65;5.68;;;1.10;83.30;;;;;;5114996;28;20046;-78
2023/04/05 03:06:12;;;;;;;10.00;5.85;;;1.10;83.40;;;;;;5115110;28;20035;-77
2023/04/05 03:08:47;;;;;;;11.45;6.47;;;1.10;83.40;;;;;;5099011;28;20445;-78
2023/04/05 03:11:14;;;;;;;9.65;6.13;;;1.10;83.30;;;;;;5099215;28;20078;-78
2023/04/05 03:13:40;;;;;;;8.68;5.85;;;1.20;83.20;;;;;;5113817;28;20116;-77
2023/04/05 03:16:06;;;;;;;10.77;6.35;;;1.20;83.20;;;;;;5114980;28;20039;-78
2023/04/05 03:18:32;;;;;;;9.00;6.15;;;1.10;83.20;;;;;;5114951;28;20096;-78
2023/04/05 03:20:58;;;;;;;9.02;6.40;;;1.20;83.30;;;;;;5115028;28;20040;-76
2023/04/05 03:23:28;;;;;;;12.13;6.45;;;1.20;83.30;;;;;;5098001;28;20075;-77
2023/04/05 03:25:58;;;;;;;11.90;7.47;;;1.20;83.20;;;;;;5114936;28;20039;-77
2023/04/05 03:28:24;;;;;;;12.98;7.25;;;1.10;83.30;;;;;;5114862;28;20046;-76
2023/04/05 03:30:51;;;;;;;11.02;6.32;;;1.10;83.40;;;;;;5113934;28;20391;-77
2023/04/05 03:33:17;;;;;;;9.00;6.38;;;1.10;83.50;;;;;;5114748;28;20042;-76
2023/04/05 03:35:43;;;;;;;9.85;6.50;;;1.10;83.50;;;;;;5114797;28;20043;-77
2023/04/05 03:38:09;;;;;;;10.30;6.82;;;1.10;83.40;;;;;;5098095;28;20035;-77
2023/04/05 03:40:35;;;;;;;8.40;6.32;;;1.10;83.50;;;;;;5097754;28;20505;-76
2023/04/05 03:43:00;;;;;;;9.85;6.60;;;1.10;83.60;;;;;;5114646;28;20054;-77
2023/04/05 03:45:28;;;;;;;11.57;6.97;;;1.10;83.60;;;;;;5115219;27;20035;-77
2023/04/05 03:47:54;;;;;;;8.85;6.63;;;1.10;83.60;;;;;;5118851;27;20051;-76
2023/04/05 03:50:20;;;;;;;13.20;7.93;;;1.10;83.60;;;;;;5101881;27;20522;-76
2023/04/05 03:52:46;;;;;;;14.27;7.40;;;1.10;83.60;;;;;;5101359;27;20108;-77
2023/04/05 03:55:12;;;;;;;13.52;7.30;;;1.10;83.50;;;;;;5118472;27;20095;-77
2023/04/05 03:57:39;;;;;;;10.95;6.57;;;1.10;83.70;;;;;;5101600;27;20031;-77
2023/04/05 04:00:16;;;;;;;11.00;6.65;;;1.00;83.90;;;;;;5114764;28;20047;-78
2023/04/05 04:02:43;;;;;;;11.98;7.57;;;1.00;83.70;;;;;;5114175;28;20506;-78
2023/04/05 04:05:13;;;;;;;9.73;6.63;;;0.90;83.70;;;;;;5098093;28;20047;-79
2023/04/05 04:07:40;;;;;;;11.00;6.70;;;0.90;84.00;;;;;;5098070;28;20043;-78
2023/04/05 04:10:08;;;;;;;9.85;6.43;;;0.90;84.00;;;;;;5114783;28;20044;-78
2023/04/05 04:12:33;;;;;;;11.95;7.53;;;0.90;83.80;;;;;;5114683;28;20047;-79
2023/04/05 04:14:59;;;;;;;12.07;7.13;;;0.90;83.90;;;;;;5114665;28;20373;-78
2023/04/05 04:17:30;;;;;;;9.80;6.97;;;0.80;84.00;;;;;;5097089;28;20074;-78
2023/04/05 04:19:57;;;;;;;10.95;7.05;;;0.80;84.00;;;;;;5097518;28;20071;-79
2023/04/05 04:22:31;;;;;;;11.45;7.30;;;0.80;84.00;;;;;;5114642;28;20044;-78
2023/04/05 04:25:03;;;;;;;13.00;7.22;;;0.70;84.00;;;;;;5081964;28;20114;-77
2023/04/05 04:27:34;;;;;;;13.20;7.80;;;0.70;84.10;;;;;;5114732;28;20043;-79
2023/04/05 04:30:03;;;;;;;10.35;6.50;;;0.70;84.10;;;;;;5097763;28;20066;-78
2023/04/05 04:32:50;;;;;;;11.70;7.00;;;0.70;84.10;;;;;;5114420;28;20124;-78
2023/04/05 04:35:19;;;;;;;13.20;7.35;;;0.70;84.00;;;;;;5113148;28;20564;-78
2023/04/05 04:37:56;;;;;;;12.02;6.88;;;0.60;83.80;;;;;;5114284;28;20044;-79
2023/04/05 04:40:37;;;;;;;11.32;7.07;;;0.60;83.80;;;;;;5097831;28;20040;-79
2023/04/05 04:43:15;;;;;;;13.07;7.50;;;0.60;83.80;;;;;;5114341;28;20087;-80
2023/04/05 04:45:47;;;;;;;10.23;7.38;;;0.60;83.80;;;;;;5114008;28;20051;-77
2023/04/05 04:48:16;;;;;;;12.45;7.18;;;0.60;83.80;;;;;;5113892;28;20089;-77
2023/04/05 04:50:47;;;;;;;12.50;7.90;;;0.60;83.80;;;;;;5096618;28;20096;-77
2023/04/05 04:53:16;;;;;;;14.48;9.23;;;0.60;83.90;;;;;;5113561;28;20043;-77
2023/04/05 04:55:42;;;;;;;12.90;7.90;;;0.60;84.00;;;;;;5095869;28;20044;-77
2023/04/05 04:58:09;;;;;;;12.75;8.23;;;0.50;83.90;;;;;;5113469;28;20058;-77
2023/04/05 05:00:39;;;;;;;13.82;8.30;;;0.60;83.90;;;;;;5113662;28;20538;-77
2023/04/05 05:03:07;;;;;;;14.20;8.07;;;0.50;84.00;;;;;;5097271;28;20047;-78
2023/04/05 05:05:33;;;;;;;14.40;7.65;;;0.50;84.10;;;;;;5113383;28;20413;-77
2023/04/05 05:07:59;;;;;;;13.60;7.75;;;0.50;84.10;;;;;;5113664;28;20136;-77
2023/04/05 05:10:25;;;;;;;12.43;8.65;;;0.50;84.10;;;;;;5113567;28;20073;-76
2023/04/05 05:12:50;;;;;;;13.45;7.55;;;0.50;84.20;;;;;;5113426;28;20054;-77
2023/04/05 05:15:16;;;;;;;16.17;8.68;;;0.50;84.10;;;;;;5113556;28;20126;-77
2023/04/05 05:17:43;;;;;;;12.52;8.10;;;0.50;84.40;;;;;;5113411;28;20089;-76
2023/04/05 05:20:09;;;;;;;14.02;9.18;;;0.50;84.30;;;;;;5079953;28;20043;-75
2023/04/05 05:22:39;;;;;;;12.52;9.60;;;0.40;84.30;;;;;;5096326;28;20122;-76
2023/04/05 05:25:06;;;;;;;15.60;8.63;;;0.40;84.20;;;;;;5113557;28;20385;-77
2023/04/05 05:27:32;;;;;;;15.00;9.05;;;0.40;84.20;;;;;;5113174;28;20040;-77
2023/04/05 05:29:59;;;;;;;16.95;9.25;;;0.40;84.50;;;;;;5113173;28;20047;-77
2023/04/05 05:32:24;;;;;;;12.95;8.15;;;0.40;84.50;;;;;;5113293;28;20035;-77
2023/04/05 05:34:50;;;;;;;15.93;9.45;;;0.40;84.60;;;;;;5113193;28;20491;-77
2023/04/05 05:37:16;;;;;;;11.45;8.75;;;0.40;84.80;;;;;;5112986;28;20055;-76
2023/04/05 05:39:45;;;;;;;14.70;9.63;;;0.40;84.80;;;;;;5096275;28;20392;-77
2023/04/05 05:42:11;;;;;;;13.85;8.93;;;0.40;84.90;;;;;;5113119;28;20047;-76
2023/04/05 05:44:37;;;;;;;15.45;9.25;;;0.40;85.00;;;;;;5112837;28;20449;-78
2023/04/05 05:47:03;;;;;;;13.02;8.63;;;0.50;85.00;;;;;;5112772;28;20047;-76
2023/04/05 05:49:30;;;;;;;13.73;9.82;;;0.50;85.10;;;;;;5112952;28;20082;-76
2023/04/05 05:51:56;;;;;;;13.52;8.88;;;0.50;85.10;;;;;;5095687;28;20039;-77
2023/04/05 05:54:22;;;;;;;14.43;9.38;;;0.60;84.90;;;;;;5112455;28;20511;-75
2023/04/05 05:56:48;;;;;;;13.65;9.15;;;0.60;85.00;;;;;;5112577;28;20097;-76
2023/04/05 05:59:14;;;;;;;12.65;9.30;;;0.60;85.20;;;;;;5112356;28;20047;-77
2023/04/05 06:01:45;;;;;;;12.93;9.98;;;0.70;85.50;;;;;;5078955;28;20092;-78
2023/04/05 06:04:11;;;;;;;15.13;9.63;;;0.80;85.60;;;;;;5095603;28;20040;-79
2023/04/05 06:06:37;;;;;;;16.83;10.10;;;0.80;85.50;;;;;;5112466;28;20047;-79
2023/04/05 06:09:03;;;;;;;15.75;9.90;;;0.80;85.60;;;;;;5095250;28;20097;-78
2023/04/05 06:11:29;;;;;;;17.00;10.05;;;0.90;85.50;;;;;;5112982;28;20407;-79
2023/04/05 06:13:54;;;;;;;19.73;9.95;;;1.00;85.50;;;;;;5113518;28;20035;-77
2023/04/05 06:16:21;;;;;;;16.05;9.40;;;1.00;85.40;;;;;;5114012;28;20044;-79
2023/04/05 06:18:47;;;;;;;16.33;10.10;;;1.10;85.50;;;;;;5113243;28;20112;-79
2023/04/05 06:21:13;;;;;;;20.17;10.57;;;1.10;85.60;;;;;;5112611;28;20047;-79
2023/04/05 06:23:42;;;;;;;19.10;11.30;;;1.10;85.70;;;;;;5112147;28;20509;-78
2023/04/05 06:26:08;;;;;;;14.18;11.05;;;1.20;85.70;;;;;;5095462;28;20043;-78
2023/04/05 06:28:34;;;;;;;15.60;10.90;;;1.30;85.90;;;;;;5112148;28;20475;-78
2023/04/05 06:31:00;;;;;;;18.33;11.70;;;1.40;85.80;;;;;;5112150;28;20177;-78
2023/04/05 06:33:26;;;;;;;19.75;12.15;;;1.40;85.70;;;;;;5095190;28;20040;-78
2023/04/05 06:35:52;;;;;;;20.08;13.02;;;1.50;85.70;;;;;;5112008;28;20600;-78
2023/04/05 06:38:17;;;;;;;17.88;12.30;;;1.60;85.50;;;;;;5111962;28;20035;-76
2023/04/05 06:40:43;;;;;;;20.05;12.27;;;1.60;85.40;;;;;;5095334;28;20032;-78
2023/04/05 06:43:11;;;;;;;18.48;10.88;;;1.70;85.50;;;;;;5093694;28;20039;-79
2023/04/05 06:45:37;;;;;;;17.27;11.95;;;1.80;85.50;;;;;;5110985;28;20040;-78
2023/04/05 06:48:03;;;;;;;22.35;13.32;;;1.90;85.70;;;;;;5111819;28;20471;-79
2023/04/05 06:50:29;;;;;;;18.33;11.57;;;2.00;85.30;;;;;;5077992;28;20049;-78
2023/04/05 06:52:55;;;;;;;20.88;12.32;;;2.10;85.40;;;;;;5111645;28;20040;-78
2023/04/05 06:55:21;;;;;;;21.85;12.00;;;2.10;85.10;;;;;;5111810;28;20044;-77
2023/04/05 06:57:46;;;;;;;19.10;11.75;;;2.20;85.20;;;;;;5077939;28;20078;-78
2023/04/05 07:00:14;;;;;;;21.30;12.27;;;2.30;84.90;;;;;;5094547;28;20055;-78
2023/04/05 07:02:40;;;;;;;21.13;10.75;;;2.40;84.90;;;;;;5111777;28;20051;-77
2023/04/05 07:05:07;;;;;;;16.17;12.40;;;2.40;85.10;;;;;;5094912;28;20043;-77
2023/04/05 07:07:37;;;;;;;19.65;11.80;;;2.50;84.70;;;;;;5094842;28;20048;-77
2023/04/05 07:10:04;;;;;;;19.23;12.63;;;2.60;85.10;;;;;;5111618;28;20039;-77
2023/04/05 07:12:30;;;;;;;18.58;12.20;;;2.70;84.60;;;;;;5094833;28;20074;-77
2023/04/05 07:14:58;;;;;;;17.42;12.15;;;2.80;84.60;;;;;;5064424;28;20080;-77
2023/04/05 07:17:24;;;;;;;17.63;12.20;;;2.90;84.60;;;;;;5063172;28;20032;-77
2023/04/05 07:19:50;;;;;;;18.77;11.95;;;3.00;84.30;;;;;;5065036;28;20374;-76
2023/04/05 07:22:16;;;;;;;18.05;13.18;;;3.10;84.30;;;;;;5094772;28;20043;-76
2023/04/05 07:24:43;;;;;;;18.10;12.48;;;3.10;84.60;;;;;;5098607;28;20487;-77
2023/04/05 07:27:09;;;;;;;18.77;13.00;;;3.30;84.60;;;;;;5115848;28;20144;-77
2023/04/05 07:29:39;;;;;;;19.10;12.93;;;3.40;84.50;;;;;;5098818;28;20083;-77
2023/04/05 07:32:06;;;;;;;20.40;12.95;;;3.50;83.80;;;;;;5082946;28;20132;-77
2023/04/05 07:34:32;;;;;;;20.77;12.85;;;3.60;83.70;;;;;;5081626;28;20507;-78
2023/04/05 07:36:58;;;;;;;19.20;13.00;;;3.70;83.20;;;;;;5115270;28;20040;-77
2023/04/05 07:39:24;;;;;;;17.48;11.50;;;3.90;83.00;;;;;;5098300;28;20032;-77
2023/04/05 07:41:50;;;;;;;17.73;10.95;;;4.00;82.70;;;;;;5115511;28;20078;-77
2023/04/05 07:44:16;;;;;;;16.55;12.32;;;4.10;82.40;;;;;;5115157;28;20043;-77
2023/04/05 07:46:43;;;;;;;15.32;10.77;;;4.20;82.00;;;;;;5115180;28;20046;-77
2023/04/05 07:49:10;;;;;;;19.55;11.93;;;4.30;81.80;;;;;;5082048;28;20455;-76
2023/04/05 07:51:37;;;;;;;24.30;13.77;;;4.50;81.90;;;;;;5074734;28;20060;-77
2023/04/05 07:54:04;;;;;;;17.52;12.30;;;4.60;81.80;;;;;;5074298;28;20043;-77
2023/04/05 07:56:30;;;;;;;13.40;10.63;;;4.60;81.50;;;;;;5057953;28;20055;-77
2023/04/05 07:59:00;;;;;;;16.30;12.10;;;4.80;81.30;;;;;;5076863;28;20041;-77
2023/04/05 08:01:26;;;;;;;13.20;10.00;;;4.90;81.10;;;;;;5081211;28;20043;-77
2023/04/05 08:03:53;;;;;;;18.60;12.68;;;5.00;81.00;;;;;;5097770;28;20118;-78
2023/04/05 08:06:19;;;;;;;19.50;12.05;;;5.10;80.70;;;;;;5080986;28;20044;-77
2023/04/05 08:08:46;;;;;;;17.08;11.93;;;5.20;80.70;;;;;;5081275;28;20394;-77
2023/04/05 08:11:12;;;;;;;14.40;11.05;;;5.30;80.60;;;;;;5098073;28;20402;-77
2023/04/05 08:13:40;;;;;;;16.25;11.32;;;5.40;79.40;;;;;;5097584;28;20077;-77
2023/04/05 08:16:10;;;;;;;14.32;10.65;;;5.50;78.90;;;;;;5080955;28;20509;-77
2023/04/05 08:18:36;;;;;;;13.38;9.82;;;5.60;78.90;;;;;;5097638;28;20032;-78
2023/04/05 08:21:02;;;;;;;17.88;11.18;;;5.60;78.70;;;;;;5097813;28;20040;-78
2023/04/05 08:23:28;;;;;;;16.75;11.45;;;5.70;78.80;;;;;;5097499;28;20479;-78
2023/04/05 08:25:54;;;;;;;12.98;9.80;;;5.90;78.50;;;;;;5080856;28;20047;-78
2023/04/05 08:28:20;;;;;;;16.60;10.82;;;6.00;78.40;;;;;;5080654;28;20384;-78
2023/04/05 08:30:46;;;;;;;17.40;9.43;;;6.10;76.60;;;;;;5062929;28;20043;-77
2023/04/05 08:33:12;;;;;;;13.63;8.68;;;6.20;77.50;;;;;;5097515;28;20043;-77
2023/04/05 08:35:39;;;;;;;13.13;8.63;;;6.30;76.80;;;;;;5097247;28;20047;-78
2023/04/05 08:38:06;;;;;;;15.07;10.30;;;6.40;74.90;;;;;;5097251;28;20039;-78
2023/04/05 08:40:42;;;;;;;14.07;8.63;;;6.50;75.30;;;;;;5063961;28;20031;-77
2023/04/05 08:43:11;;;;;;;12.07;8.68;;;6.70;73.90;;;;;;5097109;28;20040;-77
2023/04/05 08:45:45;;;;;;;13.73;8.40;;;6.80;73.70;;;;;;5080185;28;20050;-77
2023/04/05 08:48:11;;;;;;;;;;;7.00;73.30;;;;;;5097585;28;20040;-78
2023/04/05 08:50:37;;;;;;;12.07;9.43;;;7.00;72.30;;;;;;5097036;28;20268;-78
2023/04/05 08:53:02;;;;;;;15.00;8.50;;;7.10;72.00;;;;;;5080258;28;20369;-78
2023/04/05 08:55:28;;;;;;;14.48;10.07;;;7.30;73.10;;;;;;5096939;28;20484;-77
2023/04/05 08:57:58;;;;;;;16.67;10.68;;;7.30;72.60;;;;;;5096763;28;20096;-77
2023/04/05 09:00:26;;;;;;;15.70;9.77;;;7.50;72.80;;;;;;5096441;28;20044;-77
2023/04/05 09:02:55;;;;;;;13.45;9.45;;;7.60;72.40;;;;;;5096638;28;20051;-77
2023/04/05 09:05:22;;;;;;;14.25;9.52;;;7.60;72.10;;;;;;5096804;28;20039;-78
2023/04/05 09:07:49;;;;;;;13.23;8.52;;;7.80;71.90;;;;;;5096687;28;20051;-78
2023/04/05 09:10:18;;;;;;;13.18;9.20;;;7.90;71.70;;;;;;5096775;28;20044;-77
2023/04/05 09:12:44;;;;;;;11.93;8.32;;;7.90;69.20;;;;;;5096574;28;20043;-78
2023/04/05 09:15:10;;;;;;;12.88;8.85;;;8.00;69.60;;;;;;5096423;28;20548;-78
2023/04/05 09:17:38;;;;;;;12.90;8.95;;;8.10;70.20;;;;;;5079548;28;20040;-78
2023/04/05 09:20:05;;;;;;;11.10;7.72;;;8.20;69.80;;;;;;5096444;28;20067;-78
2023/04/05 09:22:40;;;;;;;12.93;9.73;;;8.40;69.20;;;;;;5096296;28;20082;-78
2023/04/05 09:25:06;;;;;;;16.45;8.85;;;8.40;67.60;;;;;;5096281;28;20453;-77
2023/04/05 09:27:32;;;;;;;15.82;8.55;;;8.50;68.80;;;;;;5079377;28;20040;-77
2023/04/05 09:29:58;;;;;;;11.57;8.30;;;8.60;68.60;;;;;;5079623;28;20142;-78
2023/04/05 09:32:28;;;;;;;15.13;9.68;;;8.60;66.90;;;;;;5096305;28;20137;-78
2023/04/05 09:34:54;;;;;;;11.85;8.63;;;8.80;66.40;;;;;;5096142;28;20114;-77
2023/04/05 09:37:20;;;;;;;11.32;7.40;;;8.90;66.90;;;;;;5095943;28;20086;-78
2023/04/05 09:39:48;;;;;;;10.90;8.65;;;9.00;62.70;;;;;;5079070;28;20123;-78
2023/04/05 09:42:16;;;;;;;10.88;8.88;;;9.10;65.00;;;;;;5079065;28;20421;-79
2023/04/05 09:44:53;;;;;;;14.52;8.35;;;9.20;65.60;;;;;;5078881;28;20047;-77
2023/04/05 09:47:20;;;;;;;14.18;8.73;;;9.30;64.20;;;;;;5095832;28;20088;-77
2023/04/05 09:49:49;;;;;;;11.82;8.23;;;9.50;62.00;;;;;;5078949;28;20058;-77
2023/04/05 09:52:25;;;;;;;12.35;8.18;;;9.60;62.80;;;;;;5079022;28;20040;-76
2023/04/05 09:54:54;;;;;;;13.60;7.70;;;9.60;59.00;;;;;;5095605;28;20487;-76
2023/04/05 09:57:22;;;;;;;9.82;7.60;;;9.60;58.30;;;;;;5078926;28;20035;-77
2023/04/05 09:59:47;;;;;;;9.85;7.38;;;9.60;59.80;;;;;;5078708;28;20504;-77
2023/04/05 10:02:14;;;;;;;9.82;7.28;;;9.70;58.70;;;;;;5095478;28;20126;-79
2023/04/05 10:04:43;;;;;;;11.43;7.68;;;9.80;58.80;;;;;;5095532;28;20043;-78
2023/04/05 10:07:13;;;;;;;10.50;8.13;;;9.80;55.70;;;;;;5095510;28;20091;-79
2023/04/05 10:09:40;;;;;;;11.63;7.85;;;10.00;58.40;;;;;;5095710;28;20070;-79
2023/04/05 10:12:07;;;;;;;10.43;7.15;;;10.10;56.60;;;;;;5095423;28;20487;-79
2023/04/05 10:14:35;;;;;;;9.88;6.97;;;10.10;51.20;;;;;;5095461;28;20122;-79
2023/04/05 10:17:28;;;;;;;9.77;7.15;;;10.00;48.30;;;;;;5095332;28;20044;-77
2023/04/05 10:20:00;;;;;;;10.07;6.50;;;10.10;52.10;;;;;;5113594;28;20039;-77
2023/04/05 10:22:41;;;;;;;12.43;7.95;;;10.10;48.70;;;;;;5078650;28;20035;-77
2023/04/05 10:25:41;;;;;;;9.20;6.75;;;10.10;51.90;;;;;;5078384;28;20039;-77
2023/04/05 10:28:10;;;;;;;9.90;7.50;;;10.30;53.80;;;;;;5078244;28;20050;-77
2023/04/05 10:30:43;;;;;;;13.82;6.72;;;10.20;47.90;;;;;;5078240;28;20605;-77
2023/04/05 10:33:26;;;;;;;8.85;6.63;;;10.40;52.00;;;;;;5095373;28;20043;-77
2023/04/05 10:36:30;;;;;;;8.73;6.15;;;10.60;51.60;;;;;;5095026;28;20043;-76
2023/04/05 10:38:58;;;;;;;10.20;6.57;;;10.70;47.10;;;;;;5094941;28;20047;-78
2023/04/05 10:41:25;;;;;;;13.60;7.15;;;10.80;49.60;;;;;;5095041;28;20042;-78
2023/04/05 10:43:55;;;;;;;11.75;6.97;;;11.00;50.40;;;;;;5095065;28;20062;-77
2023/04/05 10:46:21;;;;;;;11.02;7.13;;;11.00;49.40;;;;;;5078029;28;20031;-77
2023/04/05 10:49:03;;;;;;;7.68;6.07;;;11.00;46.80;;;;;;5095251;28;20401;-76
2023/04/05 10:51:29;;;;;;;8.25;5.93;;;11.10;48.40;;;;;;5095261;28;20036;-77
2023/04/05 10:53:56;;;;;;;8.40;5.90;;;11.20;47.90;;;;;;5077233;28;20043;-77
2023/04/05 10:56:23;;;;;;;8.07;5.68;;;11.30;48.00;;;;;;5094958;28;20039;-77
2023/04/05 10:58:50;;;;;;;8.73;6.63;;;11.50;48.90;;;;;;5095033;28;20072;-77
2023/04/05 11:01:18;;;;;;;7.97;6.10;;;11.70;47.80;;;;;;5077909;28;20059;-76
2023/04/05 11:03:47;;;;;;;9.63;6.38;;;11.70;46.60;;;;;;5094634;28;20114;-77
2023/04/05 11:06:30;;;;;;;8.82;6.32;;;11.70;47.10;;;;;;5094935;28;20046;-76
2023/04/05 11:09:19;;;;;;;8.27;6.38;;;12.00;48.30;;;;;;5094989;28;20417;-76
2023/04/05 11:11:51;;;;;;;8.63;6.85;;;11.90;46.30;;;;;;5094950;28;20035;-77
2023/04/05 11:14:35;;;;;;;8.43;5.82;;;12.00;47.00;;;;;;5094759;28;20075;-75
2023/04/05 11:17:02;;;;;;;7.40;5.72;;;12.10;48.30;;;;;;5078133;28;20365;-76
2023/04/05 11:19:47;;;;;;;9.10;6.18;;;12.20;46.50;;;;;;5061066;28;20035;-76
2023/04/05 11:22:23;;;;;;;8.35;6.38;;;12.30;46.80;;;;;;5094404;28;20040;-76
2023/04/05 11:24:56;;;;;;;9.60;7.00;;;12.50;47.60;;;;;;5094691;28;20039;-76
2023/04/05 11:27:32;;;;;;;8.68;6.10;;;12.50;47.00;;;;;;5094456;28;20491;-76
2023/04/05 11:30:00;;;;;;;8.55;6.30;;;12.40;46.20;;;;;;5094677;28;20040;-76
2023/04/05 11:32:43;;;;;;;8.68;6.68;;;12.60;48.70;;;;;;5115134;28;20394;-76
2023/04/05 11:35:24;;;;;;;8.60;5.95;;;12.70;45.90;;;;;;5115506;28;20047;-77
2023/04/05 11:37:59;;;;;;;6.97;6.05;;;12.70;46.60;;;;;;5098674;28;20039;-77
2023/04/05 11:40:26;;;;;;;10.77;5.80;;;12.50;39.30;;;;;;5098382;28;20031;-76
2023/04/05 11:42:59;;;;;;;7.13;5.43;;;12.50;41.60;;;;;;5115302;28;20088;-76
2023/04/05 11:45:25;;;;;;;7.35;5.75;;;12.50;42.80;;;;;;5115621;28;20054;-78
2023/04/05 11:47:51;;;;;;;9.60;6.10;;;12.40;42.50;;;;;;5115654;28;20405;-78
2023/04/05 11:50:16;;;;;;;5.95;5.35;;;12.40;43.50;;;;;;5115052;28;20125;-76
2023/04/05 11:52:42;;;;;;;8.77;6.18;;;12.60;43.70;;;;;;5114449;28;20130;-77
2023/04/05 11:55:08;;;;;;;10.55;6.90;;;12.70;43.70;;;;;;5095013;28;20516;-76
2023/04/05 11:57:36;;;;;;;8.57;6.18;;;12.80;43.50;;;;;;5095691;28;20031;-76
2023/04/05 12:00:02;;;;;;;7.45;5.78;;;12.80;42.20;;;;;;5112682;28;20371;-75
2023/04/05 12:02:33;;;;;;;8.57;5.82;;;13.00;44.30;;;;;;5112587;28;20079;-75
2023/04/05 12:04:59;;;;;;;8.13;5.63;;;13.30;45.50;;;;;;5113025;28;20112;-77
2023/04/05 12:07:28;;;;;;;9.02;6.70;;;13.50;45.20;;;;;;5117333;27;20039;-76
2023/04/05 12:09:59;;;;;;;8.18;6.32;;;13.70;45.10;;;;;;5101225;27;20074;-77
2023/04/05 12:12:25;;;;;;;8.68;6.63;;;14.00;45.00;;;;;;5118370;27;20083;-77
2023/04/05 12:14:50;;;;;;;8.20;6.50;;;14.00;44.00;;;;;;5118483;27;20474;-77
2023/04/05 12:17:16;;;;;;;8.13;5.53;;;13.70;41.20;;;;;;5101228;27;20066;-77
2023/04/05 12:19:42;;;;;;;8.18;6.25;;;13.50;41.20;;;;;;5118362;27;20035;-77
2023/04/05 12:22:08;;;;;;;7.07;5.72;;;13.20;40.00;;;;;;5118254;27;20043;-77
2023/04/05 12:24:34;;;;;;;7.40;5.95;;;13.10;40.50;;;;;;5117848;27;20406;-76
2023/04/05 12:27:00;;;;;;;7.60;5.80;;;13.10;40.40;;;;;;5119396;27;20051;-76
2023/04/05 12:29:26;;;;;;;7.18;5.45;;;13.10;39.40;;;;;;5105332;27;20046;-76
2023/04/05 12:31:54;;;;;;;6.80;5.35;;;13.30;41.10;;;;;;5121843;27;20474;-76
2023/04/05 12:34:26;;;;;;;7.57;5.85;;;13.20;39.90;;;;;;5121465;27;20043;-76
2023/04/05 12:36:52;;;;;;;6.72;5.63;;;13.40;40.40;;;;;;5120943;27;20091;-77
2023/04/05 12:39:20;;;;;;;7.70;5.45;;;13.60;39.50;;;;;;5104351;27;20035;-77
2023/04/05 12:41:59;;;;;;;7.65;6.20;;;13.40;38.30;;;;;;5120750;27;20122;-77
2023/04/05 12:44:29;;;;;;;11.07;5.57;;;13.60;38.00;;;;;;5120518;27;20518;-77
2023/04/05 12:47:01;;;;;;;9.07;5.63;;;13.60;39.50;;;;;;5120286;27;20126;-77
2023/04/05 12:49:27;;;;;;;8.27;5.68;;;13.80;39.20;;;;;;5120591;27;20060;-78
2023/04/05 12:51:53;;;;;;;9.10;5.70;;;14.10;40.80;;;;;;5120542;27;20047;-78
2023/04/05 12:54:23;;;;;;;9.30;5.25;;;14.30;40.60;;;;;;5120312;27;20044;-78